sensor_id;sensor_type;location;lat;lon;timestamp;P1;durP1;ratioP1;P2;durP2;ratioP2
8365;SDS011;4220;42.502;24.188;2023-04-03T00:00:08;5.63;;;4.30;;
8365;SDS011;4220;42.502;24.188;2023-04-03T00:02:37;6.67;;;4.33;;
8365;SDS011;4220;42.502;24.188;2023-04-03T00:05:05;6.63;;;4.47;;
8365;SDS011;4220;42.502;24.188;2023-04-03T00:07:33;5.40;;;4.00;;
8365;SDS011;4220;42.502;24.188;2023-04-03T00:09:59;6.23;;;3.87;;
8365;SDS011;4220;42.502;24.188;2023-04-03T00:12:26;7.97;;;4.53;;
8365;SDS011;4220;42.502;24.188;2023-04-03T00:14:53;6.57;;;4.90;;
8365;SDS011;4220;42.502;24.188;2023-04-03T00:17:20;9.63;;;6.03;;
8365;SDS011;4220;42.502;24.188;2023-04-03T00:19:48;7.20;;;5.60;;
8365;SDS011;4220;42.502;24.188;2023-04-03T00:22:15;10.40;;;8.10;;
8365;SDS011;4220;42.502;24.188;2023-04-03T00:24:41;5.70;;;5.10;;
8365;SDS011;4220;42.502;24.188;2023-04-03T00:27:08;3.87;;;3.47;;
8365;SDS011;4220;42.502;24.188;2023-04-03T00:29:36;4.93;;;3.63;;
8365;SDS011;4220;42.502;24.188;2023-04-03T00:32:03;5.07;;;3.67;;
8365;SDS011;4220;42.502;24.188;2023-04-03T00:34:30;8.07;;;6.10;;
8365;SDS011;4220;42.502;24.188;2023-04-03T00:36:58;7.57;;;6.10;;
8365;SDS011;4220;42.502;24.188;2023-04-03T00:39:25;9.30;;;6.27;;
8365;SDS011;4220;42.502;24.188;2023-04-03T00:41:51;9.67;;;6.20;;
8365;SDS011;4220;42.502;24.188;2023-04-03T00:44:19;11.23;;;6.07;;
8365;SDS011;4220;42.502;24.188;2023-04-03T00:46:47;7.40;;;4.50;;
8365;SDS011;4220;42.502;24.188;2023-04-03T00:49:14;4.33;;;3.37;;
8365;SDS011;4220;42.502;24.188;2023-04-03T00:51:41;3.00;;;1.93;;
8365;SDS011;4220;42.502;24.188;2023-04-03T00:54:10;2.03;;;1.87;;
8365;SDS011;4220;42.502;24.188;2023-04-03T00:56:37;2.20;;;2.00;;
8365;SDS011;4220;42.502;24.188;2023-04-03T00:59:05;3.37;;;2.77;;
8365;SDS011;4220;42.502;24.188;2023-04-03T01:01:36;5.47;;;3.50;;
8365;SDS011;4220;42.502;24.188;2023-04-03T01:04:04;3.27;;;2.97;;
8365;SDS011;4220;42.502;24.188;2023-04-03T01:06:32;3.17;;;2.87;;
8365;SDS011;4220;42.502;24.188;2023-04-03T01:09:01;4.53;;;2.97;;
8365;SDS011;4220;42.502;24.188;2023-04-03T01:11:31;2.43;;;2.23;;
8365;SDS011;4220;42.502;24.188;2023-04-03T01:13:58;9.60;;;7.20;;
8365;SDS011;4220;42.502;24.188;2023-04-03T01:16:25;4.30;;;3.17;;
8365;SDS011;4220;42.502;24.188;2023-04-03T01:18:52;4.33;;;3.13;;
8365;SDS011;4220;42.502;24.188;2023-04-03T01:21:36;4.13;;;3.73;;
8365;SDS011;4220;42.502;24.188;2023-04-03T01:24:31;4.43;;;3.17;;
8365;SDS011;4220;42.502;24.188;2023-04-03T01:27:02;4.60;;;3.67;;
8365;SDS011;4220;42.502;24.188;2023-04-03T01:29:31;5.17;;;4.30;;
8365;SDS011;4220;42.502;24.188;2023-04-03T01:32:00;4.33;;;3.20;;
8365;SDS011;4220;42.502;24.188;2023-04-03T01:34:28;6.30;;;4.73;;
8365;SDS011;4220;42.502;24.188;2023-04-03T01:36:56;5.83;;;4.40;;
8365;SDS011;4220;42.502;24.188;2023-04-03T01:39:23;7.13;;;4.97;;
8365;SDS011;4220;42.502;24.188;2023-04-03T01:41:50;9.03;;;5.03;;
8365;SDS011;4220;42.502;24.188;2023-04-03T01:44:17;6.27;;;4.77;;
8365;SDS011;4220;42.502;24.188;2023-04-03T01:46:44;4.83;;;3.60;;
8365;SDS011;4220;42.502;24.188;2023-04-03T01:49:12;3.10;;;2.77;;
8365;SDS011;4220;42.502;24.188;2023-04-03T01:51:39;3.20;;;2.10;;
8365;SDS011;4220;42.502;24.188;2023-04-03T01:54:06;1.40;;;1.30;;
8365;SDS011;4220;42.502;24.188;2023-04-03T01:56:33;1.40;;;1.20;;
8365;SDS011;4220;42.502;24.188;2023-04-03T01:59:00;1.60;;;1.40;;
8365;SDS011;4220;42.502;24.188;2023-04-03T02:01:27;1.37;;;1.27;;
8365;SDS011;4220;42.502;24.188;2023-04-03T02:03:54;3.20;;;2.10;;
8365;SDS011;4220;42.502;24.188;2023-04-03T02:06:22;27.67;;;23.53;;
8365;SDS011;4220;42.502;24.188;2023-04-03T02:08:49;16.23;;;12.63;;
8365;SDS011;4220;42.502;24.188;2023-04-03T02:11:15;7.30;;;6.13;;
8365;SDS011;4220;42.502;24.188;2023-04-03T02:13:42;7.33;;;4.97;;
8365;SDS011;4220;42.502;24.188;2023-04-03T02:16:10;2.17;;;1.90;;
8365;SDS011;4220;42.502;24.188;2023-04-03T02:18:38;4.40;;;3.47;;
8365;SDS011;4220;42.502;24.188;2023-04-03T02:21:05;4.23;;;3.00;;
8365;SDS011;4220;42.502;24.188;2023-04-03T02:23:33;3.73;;;1.90;;
8365;SDS011;4220;42.502;24.188;2023-04-03T02:26:08;2.10;;;1.90;;
8365;SDS011;4220;42.502;24.188;2023-04-03T02:28:36;2.40;;;2.10;;
8365;SDS011;4220;42.502;24.188;2023-04-03T02:31:04;1.70;;;1.60;;
8365;SDS011;4220;42.502;24.188;2023-04-03T02:33:31;2.30;;;1.30;;
8365;SDS011;4220;42.502;24.188;2023-04-03T02:35:59;4.33;;;2.23;;
8365;SDS011;4220;42.502;24.188;2023-04-03T02:38:26;3.30;;;2.80;;
8365;SDS011;4220;42.502;24.188;2023-04-03T02:40:55;2.20;;;2.00;;
8365;SDS011;4220;42.502;24.188;2023-04-03T02:43:26;1.83;;;1.53;;
8365;SDS011;4220;42.502;24.188;2023-04-03T02:45:53;5.27;;;3.30;;
8365;SDS011;4220;42.502;24.188;2023-04-03T02:48:20;2.30;;;2.10;;
8365;SDS011;4220;42.502;24.188;2023-04-03T02:50:47;3.60;;;2.20;;
8365;SDS011;4220;42.502;24.188;2023-04-03T02:53:13;2.80;;;2.50;;
8365;SDS011;4220;42.502;24.188;2023-04-03T02:55:41;4.37;;;3.53;;
8365;SDS011;4220;42.502;24.188;2023-04-03T02:58:09;6.53;;;2.70;;
8365;SDS011;4220;42.502;24.188;2023-04-03T03:00:37;10.07;;;4.07;;
8365;SDS011;4220;42.502;24.188;2023-04-03T03:03:04;15.80;;;7.87;;
8365;SDS011;4220;42.502;24.188;2023-04-03T03:05:31;19.47;;;9.83;;
8365;SDS011;4220;42.502;24.188;2023-04-03T03:07:58;23.70;;;10.37;;
8365;SDS011;4220;42.502;24.188;2023-04-03T03:10:25;15.57;;;6.93;;
8365;SDS011;4220;42.502;24.188;2023-04-03T03:12:52;8.73;;;4.10;;
8365;SDS011;4220;42.502;24.188;2023-04-03T03:15:20;6.40;;;4.87;;
8365;SDS011;4220;42.502;24.188;2023-04-03T03:17:47;2.57;;;2.07;;
8365;SDS011;4220;42.502;24.188;2023-04-03T03:20:14;1.50;;;1.37;;
8365;SDS011;4220;42.502;24.188;2023-04-03T03:22:41;1.87;;;1.77;;
8365;SDS011;4220;42.502;24.188;2023-04-03T03:25:08;3.17;;;2.67;;
8365;SDS011;4220;42.502;24.188;2023-04-03T03:27:35;3.60;;;2.87;;
8365;SDS011;4220;42.502;24.188;2023-04-03T03:30:02;3.90;;;3.03;;
8365;SDS011;4220;42.502;24.188;2023-04-03T03:32:31;4.13;;;3.00;;
8365;SDS011;4220;42.502;24.188;2023-04-03T03:34:58;4.13;;;3.20;;
8365;SDS011;4220;42.502;24.188;2023-04-03T03:37:25;4.80;;;3.00;;
8365;SDS011;4220;42.502;24.188;2023-04-03T03:39:52;5.47;;;3.00;;
8365;SDS011;4220;42.502;24.188;2023-04-03T03:42:18;3.90;;;2.87;;
8365;SDS011;4220;42.502;24.188;2023-04-03T03:44:45;2.90;;;2.50;;
8365;SDS011;4220;42.502;24.188;2023-04-03T03:47:12;4.43;;;2.53;;
8365;SDS011;4220;42.502;24.188;2023-04-03T03:49:40;3.70;;;2.90;;
8365;SDS011;4220;42.502;24.188;2023-04-03T03:52:07;4.53;;;4.07;;
8365;SDS011;4220;42.502;24.188;2023-04-03T03:54:35;12.47;;;11.17;;
8365;SDS011;4220;42.502;24.188;2023-04-03T03:57:02;6.60;;;5.67;;
8365;SDS011;4220;42.502;24.188;2023-04-03T03:59:29;4.13;;;3.70;;
8365;SDS011;4220;42.502;24.188;2023-04-03T04:01:56;3.50;;;2.97;;
8365;SDS011;4220;42.502;24.188;2023-04-03T04:04:23;5.47;;;3.63;;
8365;SDS011;4220;42.502;24.188;2023-04-03T04:06:51;5.83;;;3.87;;
8365;SDS011;4220;42.502;24.188;2023-04-03T04:09:18;4.13;;;3.50;;
8365;SDS011;4220;42.502;24.188;2023-04-03T04:11:45;4.90;;;3.10;;
8365;SDS011;4220;42.502;24.188;2023-04-03T04:14:12;4.67;;;3.07;;
8365;SDS011;4220;42.502;24.188;2023-04-03T04:16:39;5.47;;;3.80;;
8365;SDS011;4220;42.502;24.188;2023-04-03T04:19:05;6.73;;;5.23;;
8365;SDS011;4220;42.502;24.188;2023-04-03T04:21:32;8.77;;;5.93;;
8365;SDS011;4220;42.502;24.188;2023-04-03T04:24:01;10.10;;;7.77;;
8365;SDS011;4220;42.502;24.188;2023-04-03T04:26:28;12.53;;;8.13;;
8365;SDS011;4220;42.502;24.188;2023-04-03T04:28:54;12.73;;;7.60;;
8365;SDS011;4220;42.502;24.188;2023-04-03T04:31:21;13.70;;;10.13;;
8365;SDS011;4220;42.502;24.188;2023-04-03T04:33:48;20.83;;;15.97;;
8365;SDS011;4220;42.502;24.188;2023-04-03T04:36:15;29.70;;;21.13;;
8365;SDS011;4220;42.502;24.188;2023-04-03T04:38:42;30.63;;;21.13;;
8365;SDS011;4220;42.502;24.188;2023-04-03T04:41:10;41.27;;;23.17;;
8365;SDS011;4220;42.502;24.188;2023-04-03T04:43:37;50.47;;;25.60;;
8365;SDS011;4220;42.502;24.188;2023-04-03T04:46:05;44.87;;;22.77;;
8365;SDS011;4220;42.502;24.188;2023-04-03T04:48:33;64.33;;;34.00;;
8365;SDS011;4220;42.502;24.188;2023-04-03T04:51:00;31.93;;;20.00;;
8365;SDS011;4220;42.502;24.188;2023-04-03T04:53:28;34.13;;;20.57;;
8365;SDS011;4220;42.502;24.188;2023-04-03T04:55:54;32.70;;;19.50;;
8365;SDS011;4220;42.502;24.188;2023-04-03T04:58:23;34.97;;;20.70;;
8365;SDS011;4220;42.502;24.188;2023-04-03T05:00:51;35.67;;;24.50;;
8365;SDS011;4220;42.502;24.188;2023-04-03T05:03:25;27.33;;;20.87;;
8365;SDS011;4220;42.502;24.188;2023-04-03T05:05:52;37.30;;;26.47;;
8365;SDS011;4220;42.502;24.188;2023-04-03T05:08:19;33.87;;;25.93;;
8365;SDS011;4220;42.502;24.188;2023-04-03T05:10:46;31.07;;;22.70;;
8365;SDS011;4220;42.502;24.188;2023-04-03T05:13:13;30.47;;;21.87;;
8365;SDS011;4220;42.502;24.188;2023-04-03T05:15:42;28.77;;;20.37;;
8365;SDS011;4220;42.502;24.188;2023-04-03T05:18:09;26.77;;;17.90;;
8365;SDS011;4220;42.502;24.188;2023-04-03T05:20:35;29.67;;;20.37;;
8365;SDS011;4220;42.502;24.188;2023-04-03T05:23:03;30.50;;;19.33;;
8365;SDS011;4220;42.502;24.188;2023-04-03T05:25:30;26.97;;;17.90;;
8365;SDS011;4220;42.502;24.188;2023-04-03T05:27:57;25.10;;;16.53;;
8365;SDS011;4220;42.502;24.188;2023-04-03T05:30:24;26.77;;;17.83;;
8365;SDS011;4220;42.502;24.188;2023-04-03T05:32:52;25.70;;;16.50;;
8365;SDS011;4220;42.502;24.188;2023-04-03T05:35:19;19.13;;;14.50;;
8365;SDS011;4220;42.502;24.188;2023-04-03T05:37:46;20.50;;;15.40;;
8365;SDS011;4220;42.502;24.188;2023-04-03T05:40:13;23.63;;;18.27;;
8365;SDS011;4220;42.502;24.188;2023-04-03T05:42:40;27.23;;;20.23;;
8365;SDS011;4220;42.502;24.188;2023-04-03T05:45:06;23.30;;;18.67;;
8365;SDS011;4220;42.502;24.188;2023-04-03T05:47:33;26.50;;;19.90;;
8365;SDS011;4220;42.502;24.188;2023-04-03T05:50:02;30.93;;;18.53;;
8365;SDS011;4220;42.502;24.188;2023-04-03T05:52:30;29.73;;;19.37;;
8365;SDS011;4220;42.502;24.188;2023-04-03T05:54:59;38.40;;;20.40;;
8365;SDS011;4220;42.502;24.188;2023-04-03T05:57:25;34.37;;;22.23;;
8365;SDS011;4220;42.502;24.188;2023-04-03T05:59:52;43.30;;;27.93;;
8365;SDS011;4220;42.502;24.188;2023-04-03T06:02:21;45.93;;;33.30;;
8365;SDS011;4220;42.502;24.188;2023-04-03T06:04:49;46.23;;;33.33;;
8365;SDS011;4220;42.502;24.188;2023-04-03T06:07:19;59.73;;;39.90;;
8365;SDS011;4220;42.502;24.188;2023-04-03T06:09:47;53.13;;;39.33;;
8365;SDS011;4220;42.502;24.188;2023-04-03T06:12:14;51.23;;;38.47;;
8365;SDS011;4220;42.502;24.188;2023-04-03T06:14:42;47.83;;;36.20;;
8365;SDS011;4220;42.502;24.188;2023-04-03T06:17:09;128.30;;;88.67;;
8365;SDS011;4220;42.502;24.188;2023-04-03T06:19:37;205.53;;;133.60;;
8365;SDS011;4220;42.502;24.188;2023-04-03T06:22:04;52.87;;;38.60;;
8365;SDS011;4220;42.502;24.188;2023-04-03T06:24:33;37.13;;;28.57;;
8365;SDS011;4220;42.502;24.188;2023-04-03T06:27:00;95.73;;;70.37;;
8365;SDS011;4220;42.502;24.188;2023-04-03T06:29:27;82.60;;;57.17;;
8365;SDS011;4220;42.502;24.188;2023-04-03T06:31:54;114.63;;;80.67;;
8365;SDS011;4220;42.502;24.188;2023-04-03T06:34:22;49.97;;;39.53;;
8365;SDS011;4220;42.502;24.188;2023-04-03T06:36:48;199.60;;;130.90;;
8365;SDS011;4220;42.502;24.188;2023-04-03T06:39:16;224.63;;;139.43;;
8365;SDS011;4220;42.502;24.188;2023-04-03T06:41:47;77.77;;;56.67;;
8365;SDS011;4220;42.502;24.188;2023-04-03T06:44:15;36.37;;;27.23;;
8365;SDS011;4220;42.502;24.188;2023-04-03T06:46:42;44.50;;;30.33;;
8365;SDS011;4220;42.502;24.188;2023-04-03T06:49:10;55.63;;;35.97;;
8365;SDS011;4220;42.502;24.188;2023-04-03T06:51:37;51.03;;;34.47;;
8365;SDS011;4220;42.502;24.188;2023-04-03T06:54:04;50.10;;;36.57;;
8365;SDS011;4220;42.502;24.188;2023-04-03T06:56:33;58.57;;;45.63;;
8365;SDS011;4220;42.502;24.188;2023-04-03T06:59:02;63.70;;;47.65;;
8365;SDS011;4220;42.502;24.188;2023-04-03T07:01:29;69.75;;;51.85;;
8365;SDS011;4220;42.502;24.188;2023-04-03T07:03:57;74.25;;;54.72;;
8365;SDS011;4220;42.502;24.188;2023-04-03T07:06:24;220.80;;;144.75;;
8365;SDS011;4220;42.502;24.188;2023-04-03T07:08:52;409.50;;;279.92;;
8365;SDS011;4220;42.502;24.188;2023-04-03T07:11:19;193.32;;;125.90;;
8365;SDS011;4220;42.502;24.188;2023-04-03T07:13:47;83.60;;;52.22;;
8365;SDS011;4220;42.502;24.188;2023-04-03T07:16:15;72.10;;;45.40;;
8365;SDS011;4220;42.502;24.188;2023-04-03T07:18:42;75.60;;;47.22;;
8365;SDS011;4220;42.502;24.188;2023-04-03T07:21:09;63.10;;;45.65;;
8365;SDS011;4220;42.502;24.188;2023-04-03T07:23:36;58.55;;;41.42;;
8365;SDS011;4220;42.502;24.188;2023-04-03T07:26:04;52.13;;;38.53;;
8365;SDS011;4220;42.502;24.188;2023-04-03T07:28:31;52.38;;;38.85;;
8365;SDS011;4220;42.502;24.188;2023-04-03T07:31:00;56.75;;;40.60;;
8365;SDS011;4220;42.502;24.188;2023-04-03T07:33:30;50.40;;;36.85;;
8365;SDS011;4220;42.502;24.188;2023-04-03T07:35:57;44.80;;;33.67;;
8365;SDS011;4220;42.502;24.188;2023-04-03T07:38:25;47.65;;;35.35;;
8365;SDS011;4220;42.502;24.188;2023-04-03T07:40:52;45.22;;;30.88;;
8365;SDS011;4220;42.502;24.188;2023-04-03T07:43:20;39.40;;;25.80;;
8365;SDS011;4220;42.502;24.188;2023-04-03T07:45:49;40.95;;;28.38;;
8365;SDS011;4220;42.502;24.188;2023-04-03T07:48:17;43.35;;;31.75;;
8365;SDS011;4220;42.502;24.188;2023-04-03T07:50:46;33.53;;;27.10;;
8365;SDS011;4220;42.502;24.188;2023-04-03T07:53:13;48.00;;;37.92;;
8365;SDS011;4220;42.502;24.188;2023-04-03T07:55:40;46.30;;;34.05;;
8365;SDS011;4220;42.502;24.188;2023-04-03T07:58:09;56.53;;;37.97;;
8365;SDS011;4220;42.502;24.188;2023-04-03T08:00:37;59.65;;;36.45;;
8365;SDS011;4220;42.502;24.188;2023-04-03T08:03:04;59.90;;;37.65;;
8365;SDS011;4220;42.502;24.188;2023-04-03T08:05:34;111.22;;;79.03;;
8365;SDS011;4220;42.502;24.188;2023-04-03T08:08:04;154.18;;;110.57;;
8365;SDS011;4220;42.502;24.188;2023-04-03T08:10:32;97.93;;;72.22;;
8365;SDS011;4220;42.502;24.188;2023-04-03T08:12:59;29.58;;;23.75;;
8365;SDS011;4220;42.502;24.188;2023-04-03T08:15:26;25.27;;;19.92;;
8365;SDS011;4220;42.502;24.188;2023-04-03T08:17:53;21.17;;;15.70;;
8365;SDS011;4220;42.502;24.188;2023-04-03T08:20:20;15.20;;;13.30;;
8365;SDS011;4220;42.502;24.188;2023-04-03T08:22:47;21.27;;;14.77;;
8365;SDS011;4220;42.502;24.188;2023-04-03T08:25:16;17.25;;;14.63;;
8365;SDS011;4220;42.502;24.188;2023-04-03T08:27:43;20.13;;;15.45;;
8365;SDS011;4220;42.502;24.188;2023-04-03T08:30:10;17.15;;;14.70;;
8365;SDS011;4220;42.502;24.188;2023-04-03T08:32:38;18.17;;;12.07;;
8365;SDS011;4220;42.502;24.188;2023-04-03T08:35:08;15.55;;;12.15;;
8365;SDS011;4220;42.502;24.188;2023-04-03T08:37:35;16.27;;;12.85;;
8365;SDS011;4220;42.502;24.188;2023-04-03T08:40:03;20.83;;;11.65;;
8365;SDS011;4220;42.502;24.188;2023-04-03T08:42:36;14.18;;;9.90;;
8365;SDS011;4220;42.502;24.188;2023-04-03T08:45:09;7.53;;;5.95;;
8365;SDS011;4220;42.502;24.188;2023-04-03T08:47:40;5.15;;;3.70;;
8365;SDS011;4220;42.502;24.188;2023-04-03T08:50:13;8.65;;;4.43;;
8365;SDS011;4220;42.502;24.188;2023-04-03T08:52:44;7.70;;;4.45;;
8365;SDS011;4220;42.502;24.188;2023-04-03T08:55:19;7.00;;;4.30;;
8365;SDS011;4220;42.502;24.188;2023-04-03T08:57:53;7.85;;;4.97;;
8365;SDS011;4220;42.502;24.188;2023-04-03T09:00:28;4.38;;;3.55;;
8365;SDS011;4220;42.502;24.188;2023-04-03T09:02:58;5.57;;;3.75;;
8365;SDS011;4220;42.502;24.188;2023-04-03T09:05:29;7.10;;;4.05;;
8365;SDS011;4220;42.502;24.188;2023-04-03T09:08:12;6.30;;;3.63;;
8365;SDS011;4220;42.502;24.188;2023-04-03T09:10:45;4.03;;;3.45;;
8365;SDS011;4220;42.502;24.188;2023-04-03T09:13:17;43.95;;;29.48;;
8365;SDS011;4220;42.502;24.188;2023-04-03T09:15:53;98.22;;;68.03;;
8365;SDS011;4220;42.502;24.188;2023-04-03T09:18:21;6.80;;;4.78;;
8365;SDS011;4220;42.502;24.188;2023-04-03T09:20:56;5.18;;;3.92;;
8365;SDS011;4220;42.502;24.188;2023-04-03T09:23:32;4.25;;;3.55;;
8365;SDS011;4220;42.502;24.188;2023-04-03T09:26:12;52.00;;;26.90;;
8365;SDS011;4220;42.502;24.188;2023-04-03T09:28:43;12.05;;;6.55;;
8365;SDS011;4220;42.502;24.188;2023-04-03T09:31:17;5.60;;;3.78;;
8365;SDS011;4220;42.502;24.188;2023-04-03T09:33:46;5.05;;;3.33;;
8365;SDS011;4220;42.502;24.188;2023-04-03T09:36:22;6.43;;;3.20;;
8365;SDS011;4220;42.502;24.188;2023-04-03T09:39:05;4.65;;;3.67;;
8365;SDS011;4220;42.502;24.188;2023-04-03T09:41:35;4.32;;;3.20;;
8365;SDS011;4220;42.502;24.188;2023-04-03T09:44:17;5.22;;;4.32;;
8365;SDS011;4220;42.502;24.188;2023-04-03T09:46:47;6.90;;;5.28;;
8365;SDS011;4220;42.502;24.188;2023-04-03T09:49:14;8.45;;;6.38;;
8365;SDS011;4220;42.502;24.188;2023-04-03T09:51:41;4.07;;;3.53;;
8365;SDS011;4220;42.502;24.188;2023-04-03T09:57:04;4.53;;;3.40;;
8365;SDS011;4220;42.502;24.188;2023-04-03T09:59:35;6.13;;;5.45;;
8365;SDS011;4220;42.502;24.188;2023-04-03T10:02:04;10.25;;;7.30;;
8365;SDS011;4220;42.502;24.188;2023-04-03T10:05:26;8.73;;;5.30;;
8365;SDS011;4220;42.502;24.188;2023-04-03T10:08:07;24.23;;;21.35;;
8365;SDS011;4220;42.502;24.188;2023-04-03T10:10:35;37.58;;;28.42;;
8365;SDS011;4220;42.502;24.188;2023-04-03T10:13:03;27.30;;;21.65;;
8365;SDS011;4220;42.502;24.188;2023-04-03T10:15:36;7.13;;;4.00;;
8365;SDS011;4220;42.502;24.188;2023-04-03T10:18:14;6.63;;;4.20;;
8365;SDS011;4220;42.502;24.188;2023-04-03T10:20:54;4.13;;;3.03;;
8365;SDS011;4220;42.502;24.188;2023-04-03T10:23:26;14.40;;;12.82;;
8365;SDS011;4220;42.502;24.188;2023-04-03T10:26:01;56.90;;;40.47;;
8365;SDS011;4220;42.502;24.188;2023-04-03T10:28:40;11.93;;;8.45;;
8365;SDS011;4220;42.502;24.188;2023-04-03T10:31:14;5.45;;;3.75;;
8365;SDS011;4220;42.502;24.188;2023-04-03T10:33:51;4.07;;;3.10;;
8365;SDS011;4220;42.502;24.188;2023-04-03T10:36:27;5.43;;;3.63;;
8365;SDS011;4220;42.502;24.188;2023-04-03T10:39:05;6.32;;;3.33;;
8365;SDS011;4220;42.502;24.188;2023-04-03T10:41:47;5.18;;;3.90;;
8365;SDS011;4220;42.502;24.188;2023-04-03T10:44:26;3.58;;;3.00;;
8365;SDS011;4220;42.502;24.188;2023-04-03T10:47:02;5.78;;;3.55;;
8365;SDS011;4220;42.502;24.188;2023-04-03T10:49:36;5.15;;;4.15;;
8365;SDS011;4220;42.502;24.188;2023-04-03T10:52:14;4.35;;;3.70;;
8365;SDS011;4220;42.502;24.188;2023-04-03T10:54:46;5.80;;;4.57;;
8365;SDS011;4220;42.502;24.188;2023-04-03T10:57:21;6.00;;;3.88;;
8365;SDS011;4220;42.502;24.188;2023-04-03T10:59:51;17.42;;;10.15;;
8365;SDS011;4220;42.502;24.188;2023-04-03T11:02:25;34.45;;;23.60;;
8365;SDS011;4220;42.502;24.188;2023-04-03T11:04:56;28.30;;;19.30;;
8365;SDS011;4220;42.502;24.188;2023-04-03T11:07:28;7.50;;;6.55;;
8365;SDS011;4220;42.502;24.188;2023-04-03T11:10:02;11.18;;;8.70;;
8365;SDS011;4220;42.502;24.188;2023-04-03T11:12:33;22.50;;;17.60;;
8365;SDS011;4220;42.502;24.188;2023-04-03T11:15:11;8.90;;;7.82;;
8365;SDS011;4220;42.502;24.188;2023-04-03T11:17:43;13.07;;;9.48;;
8365;SDS011;4220;42.502;24.188;2023-04-03T11:20:17;16.90;;;12.35;;
8365;SDS011;4220;42.502;24.188;2023-04-03T11:22:53;13.02;;;9.90;;
8365;SDS011;4220;42.502;24.188;2023-04-03T11:25:25;17.77;;;11.65;;
8365;SDS011;4220;42.502;24.188;2023-04-03T11:27:54;24.70;;;16.10;;
8365;SDS011;4220;42.502;24.188;2023-04-03T11:30:23;15.40;;;10.48;;
8365;SDS011;4220;42.502;24.188;2023-04-03T11:35:59;21.63;;;16.23;;
8365;SDS011;4220;42.502;24.188;2023-04-03T11:38:33;38.38;;;28.00;;
8365;SDS011;4220;42.502;24.188;2023-04-03T11:41:04;49.90;;;32.55;;
8365;SDS011;4220;42.502;24.188;2023-04-03T11:43:36;20.98;;;13.18;;
8365;SDS011;4220;42.502;24.188;2023-04-03T11:46:07;14.18;;;10.05;;
8365;SDS011;4220;42.502;24.188;2023-04-03T11:51:40;10.35;;;8.88;;
8365;SDS011;4220;42.502;24.188;2023-04-03T12:09:23;8.45;;;6.60;;
8365;SDS011;4220;42.502;24.188;2023-04-03T12:12:00;14.20;;;9.73;;
8365;SDS011;4220;42.502;24.188;2023-04-03T12:14:46;33.22;;;22.50;;
8365;SDS011;4220;42.502;24.188;2023-04-03T12:17:18;128.10;;;75.93;;
8365;SDS011;4220;42.502;24.188;2023-04-03T12:19:49;158.32;;;101.05;;
8365;SDS011;4220;42.502;24.188;2023-04-03T12:22:18;15.95;;;12.25;;
8365;SDS011;4220;42.502;24.188;2023-04-03T12:24:47;9.35;;;5.30;;
8365;SDS011;4220;42.502;24.188;2023-04-03T12:27:23;4.70;;;4.13;;
8365;SDS011;4220;42.502;24.188;2023-04-03T12:29:59;5.28;;;4.65;;
8365;SDS011;4220;42.502;24.188;2023-04-03T12:32:48;8.95;;;7.03;;
8365;SDS011;4220;42.502;24.188;2023-04-03T12:35:24;7.05;;;5.55;;
8365;SDS011;4220;42.502;24.188;2023-04-03T12:40:47;11.07;;;8.23;;
8365;SDS011;4220;42.502;24.188;2023-04-03T12:46:13;11.20;;;8.48;;
8365;SDS011;4220;42.502;24.188;2023-04-03T12:48:49;7.43;;;6.07;;
8365;SDS011;4220;42.502;24.188;2023-04-03T12:51:19;6.70;;;6.00;;
8365;SDS011;4220;42.502;24.188;2023-04-03T12:53:50;8.23;;;6.60;;
8365;SDS011;4220;42.502;24.188;2023-04-03T12:56:24;8.90;;;7.25;;
8365;SDS011;4220;42.502;24.188;2023-04-03T12:58:52;9.32;;;8.25;;
8365;SDS011;4220;42.502;24.188;2023-04-03T13:01:21;12.18;;;9.80;;
8365;SDS011;4220;42.502;24.188;2023-04-03T13:03:50;25.65;;;20.08;;
8365;SDS011;4220;42.502;24.188;2023-04-03T13:06:21;24.42;;;18.92;;
8365;SDS011;4220;42.502;24.188;2023-04-03T13:08:52;17.20;;;13.20;;
8365;SDS011;4220;42.502;24.188;2023-04-03T13:11:22;15.80;;;13.88;;
8365;SDS011;4220;42.502;24.188;2023-04-03T13:13:54;16.52;;;13.23;;
8365;SDS011;4220;42.502;24.188;2023-04-03T13:16:22;11.38;;;9.48;;
8365;SDS011;4220;42.502;24.188;2023-04-03T13:18:50;12.25;;;9.20;;
8365;SDS011;4220;42.502;24.188;2023-04-03T13:21:18;12.95;;;11.15;;
8365;SDS011;4220;42.502;24.188;2023-04-03T13:23:49;13.95;;;11.00;;
8365;SDS011;4220;42.502;24.188;2023-04-03T13:26:22;12.68;;;10.45;;
8365;SDS011;4220;42.502;24.188;2023-04-03T13:28:52;10.70;;;9.32;;
8365;SDS011;4220;42.502;24.188;2023-04-03T13:31:22;15.70;;;12.60;;
8365;SDS011;4220;42.502;24.188;2023-04-03T13:33:54;19.38;;;16.20;;
8365;SDS011;4220;42.502;24.188;2023-04-03T13:36:24;16.35;;;13.70;;
8365;SDS011;4220;42.502;24.188;2023-04-03T13:39:05;47.95;;;31.60;;
8365;SDS011;4220;42.502;24.188;2023-04-03T13:41:48;88.35;;;59.67;;
8365;SDS011;4220;42.502;24.188;2023-04-03T13:44:23;35.40;;;26.80;;
8365;SDS011;4220;42.502;24.188;2023-04-03T13:46:55;105.18;;;74.57;;
8365;SDS011;4220;42.502;24.188;2023-04-03T13:49:27;77.38;;;56.28;;
8365;SDS011;4220;42.502;24.188;2023-04-03T13:51:58;26.30;;;20.83;;
8365;SDS011;4220;42.502;24.188;2023-04-03T13:54:29;48.10;;;36.10;;
8365;SDS011;4220;42.502;24.188;2023-04-03T13:56:58;38.88;;;30.17;;
8365;SDS011;4220;42.502;24.188;2023-04-03T13:59:27;29.02;;;24.25;;
8365;SDS011;4220;42.502;24.188;2023-04-03T14:02:06;25.00;;;18.80;;
8365;SDS011;4220;42.502;24.188;2023-04-03T14:04:47;13.57;;;9.98;;
8365;SDS011;4220;42.502;24.188;2023-04-03T14:07:18;11.30;;;10.05;;
8365;SDS011;4220;42.502;24.188;2023-04-03T14:09:48;13.25;;;10.18;;
8365;SDS011;4220;42.502;24.188;2023-04-03T14:12:17;16.00;;;11.98;;
8365;SDS011;4220;42.502;24.188;2023-04-03T14:14:47;14.35;;;12.85;;
8365;SDS011;4220;42.502;24.188;2023-04-03T14:17:16;15.57;;;13.40;;
8365;SDS011;4220;42.502;24.188;2023-04-03T14:19:45;20.70;;;18.08;;
8365;SDS011;4220;42.502;24.188;2023-04-03T14:22:14;19.23;;;16.33;;
8365;SDS011;4220;42.502;24.188;2023-04-03T14:24:42;13.38;;;11.52;;
8365;SDS011;4220;42.502;24.188;2023-04-03T14:27:13;11.20;;;9.52;;
8365;SDS011;4220;42.502;24.188;2023-04-03T14:29:43;12.75;;;10.30;;
8365;SDS011;4220;42.502;24.188;2023-04-03T14:32:10;13.00;;;11.02;;
8365;SDS011;4220;42.502;24.188;2023-04-03T14:34:39;21.25;;;15.02;;
8365;SDS011;4220;42.502;24.188;2023-04-03T14:37:08;28.55;;;20.23;;
8365;SDS011;4220;42.502;24.188;2023-04-03T14:39:36;23.85;;;16.85;;
8365;SDS011;4220;42.502;24.188;2023-04-03T14:42:04;31.52;;;28.13;;
8365;SDS011;4220;42.502;24.188;2023-04-03T14:44:32;31.55;;;26.70;;
8365;SDS011;4220;42.502;24.188;2023-04-03T14:47:00;16.83;;;14.15;;
8365;SDS011;4220;42.502;24.188;2023-04-03T14:49:27;17.75;;;15.45;;
8365;SDS011;4220;42.502;24.188;2023-04-03T14:51:57;22.65;;;18.83;;
8365;SDS011;4220;42.502;24.188;2023-04-03T14:54:25;29.45;;;26.25;;
8365;SDS011;4220;42.502;24.188;2023-04-03T14:56:52;27.15;;;23.77;;
8365;SDS011;4220;42.502;24.188;2023-04-03T14:59:20;31.08;;;25.77;;
8365;SDS011;4220;42.502;24.188;2023-04-03T15:01:49;18.75;;;16.75;;
8365;SDS011;4220;42.502;24.188;2023-04-03T15:04:17;13.50;;;12.15;;
8365;SDS011;4220;42.502;24.188;2023-04-03T15:06:46;14.10;;;12.90;;
8365;SDS011;4220;42.502;24.188;2023-04-03T15:09:20;15.38;;;13.23;;
8365;SDS011;4220;42.502;24.188;2023-04-03T15:11:50;16.67;;;13.40;;
8365;SDS011;4220;42.502;24.188;2023-04-03T15:14:18;23.40;;;19.98;;
8365;SDS011;4220;42.502;24.188;2023-04-03T15:16:45;19.98;;;16.75;;
8365;SDS011;4220;42.502;24.188;2023-04-03T15:19:14;18.20;;;15.32;;
8365;SDS011;4220;42.502;24.188;2023-04-03T15:21:41;17.25;;;13.70;;
8365;SDS011;4220;42.502;24.188;2023-04-03T15:24:08;18.75;;;15.68;;
8365;SDS011;4220;42.502;24.188;2023-04-03T15:26:35;19.02;;;16.17;;
8365;SDS011;4220;42.502;24.188;2023-04-03T15:29:03;15.07;;;12.98;;